sensor_id;sensor_type;location;lat;lon;timestamp;P1;durP1;ratioP1;P2;durP2;ratioP2
58222;SDS011;44020;50.890;15.796;2022-10-15T00:01:05;31.70;;;19.90;;
58222;SDS011;44020;50.890;15.796;2022-10-15T00:03:34;27.60;;;16.10;;
58222;SDS011;44020;50.890;15.796;2022-10-15T00:06:04;23.80;;;14.40;;
58222;SDS011;44020;50.890;15.796;2022-10-15T00:08:37;18.40;;;12.80;;
58222;SDS011;44020;50.890;15.796;2022-10-15T00:11:12;18.60;;;11.50;;
58222;SDS011;44020;50.890;15.796;2022-10-15T00:13:42;18.00;;;11.20;;
58222;SDS011;44020;50.890;15.796;2022-10-15T00:16:11;19.60;;;13.20;;
58222;SDS011;44020;50.890;15.796;2022-10-15T00:18:40;21.80;;;11.80;;
58222;SDS011;44020;50.890;15.796;2022-10-15T00:21:09;16.90;;;11.50;;
58222;SDS011;44020;50.890;15.796;2022-10-15T00:23:37;21.20;;;11.20;;
58222;SDS011;44020;50.890;15.796;2022-10-15T00:26:06;18.40;;;12.10;;
58222;SDS011;44020;50.890;15.796;2022-10-15T00:28:35;14.80;;;10.00;;
58222;SDS011;44020;50.890;15.796;2022-10-15T00:31:07;14.90;;;10.00;;
58222;SDS011;44020;50.890;15.796;2022-10-15T00:33:36;15.60;;;10.20;;
58222;SDS011;44020;50.890;15.796;2022-10-15T00:36:05;20.10;;;12.20;;
58222;SDS011;44020;50.890;15.796;2022-10-15T00:38:36;19.00;;;11.70;;
58222;SDS011;44020;50.890;15.796;2022-10-15T00:41:04;22.50;;;12.80;;
58222;SDS011;44020;50.890;15.796;2022-10-15T00:46:03;41.60;;;23.60;;
58222;SDS011;44020;50.890;15.796;2022-10-15T00:48:32;34.90;;;19.30;;
58222;SDS011;44020;50.890;15.796;2022-10-15T00:50:59;33.90;;;18.70;;
58222;SDS011;44020;50.890;15.796;2022-10-15T00:53:30;33.70;;;17.40;;
58222;SDS011;44020;50.890;15.796;2022-10-15T00:55:58;27.90;;;15.50;;
58222;SDS011;44020;50.890;15.796;2022-10-15T00:58:26;28.50;;;16.20;;
58222;SDS011;44020;50.890;15.796;2022-10-15T01:00:57;33.50;;;18.00;;
58222;SDS011;44020;50.890;15.796;2022-10-15T01:03:24;32.50;;;17.50;;
58222;SDS011;44020;50.890;15.796;2022-10-15T01:05:52;31.30;;;16.80;;
58222;SDS011;44020;50.890;15.796;2022-10-15T01:08:19;35.00;;;18.20;;
58222;SDS011;44020;50.890;15.796;2022-10-15T01:13:14;23.30;;;13.20;;
58222;SDS011;44020;50.890;15.796;2022-10-15T01:15:59;25.30;;;13.80;;
58222;SDS011;44020;50.890;15.796;2022-10-15T01:27:21;29.30;;;17.20;;
58222;SDS011;44020;50.890;15.796;2022-10-15T01:32:46;16.50;;;9.70;;
58222;SDS011;44020;50.890;15.796;2022-10-15T01:35:26;14.30;;;8.70;;
58222;SDS011;44020;50.890;15.796;2022-10-15T01:43:26;10.20;;;7.60;;
58222;SDS011;44020;50.890;15.796;2022-10-15T01:46:01;14.60;;;10.70;;
58222;SDS011;44020;50.890;15.796;2022-10-15T01:48:34;15.80;;;11.20;;
58222;SDS011;44020;50.890;15.796;2022-10-15T01:51:04;21.90;;;14.80;;
58222;SDS011;44020;50.890;15.796;2022-10-15T01:53:33;25.00;;;15.30;;
58222;SDS011;44020;50.890;15.796;2022-10-15T01:56:07;18.00;;;13.10;;
58222;SDS011;44020;50.890;15.796;2022-10-15T01:58:41;16.50;;;11.00;;
58222;SDS011;44020;50.890;15.796;2022-10-15T02:01:10;21.10;;;13.10;;
58222;SDS011;44020;50.890;15.796;2022-10-15T02:03:44;19.00;;;11.50;;
58222;SDS011;44020;50.890;15.796;2022-10-15T02:11:21;11.80;;;8.50;;
58222;SDS011;44020;50.890;15.796;2022-10-15T02:17:14;15.50;;;11.10;;
58222;SDS011;44020;50.890;15.796;2022-10-15T02:19:51;14.50;;;11.30;;
58222;SDS011;44020;50.890;15.796;2022-10-15T02:23:07;16.00;;;12.70;;
58222;SDS011;44020;50.890;15.796;2022-10-15T02:25:27;15.70;;;11.80;;
58222;SDS011;44020;50.890;15.796;2022-10-15T02:27:55;14.70;;;11.70;;
58222;SDS011;44020;50.890;15.796;2022-10-15T02:30:25;18.30;;;15.60;;
58222;SDS011;44020;50.890;15.796;2022-10-15T02:32:53;15.10;;;13.00;;
58222;SDS011;44020;50.890;15.796;2022-10-15T02:35:24;13.70;;;10.50;;
58222;SDS011;44020;50.890;15.796;2022-10-15T02:37:53;11.40;;;7.90;;
58222;SDS011;44020;50.890;15.796;2022-10-15T02:40:25;10.40;;;8.00;;
58222;SDS011;44020;50.890;15.796;2022-10-15T02:42:55;9.90;;;7.60;;
58222;SDS011;44020;50.890;15.796;2022-10-15T02:45:22;8.70;;;6.40;;
58222;SDS011;44020;50.890;15.796;2022-10-15T02:47:49;9.10;;;6.20;;
58222;SDS011;44020;50.890;15.796;2022-10-15T02:50:16;10.10;;;6.90;;
58222;SDS011;44020;50.890;15.796;2022-10-15T02:52:45;12.20;;;6.70;;
58222;SDS011;44020;50.890;15.796;2022-10-15T02:55:12;11.70;;;7.30;;
58222;SDS011;44020;50.890;15.796;2022-10-15T02:57:39;10.30;;;6.80;;
58222;SDS011;44020;50.890;15.796;2022-10-15T03:00:06;9.50;;;6.60;;
58222;SDS011;44020;50.890;15.796;2022-10-15T03:02:34;9.60;;;6.00;;
58222;SDS011;44020;50.890;15.796;2022-10-15T03:05:01;9.70;;;5.50;;
58222;SDS011;44020;50.890;15.796;2022-10-15T03:07:28;8.10;;;5.60;;
58222;SDS011;44020;50.890;15.796;2022-10-15T03:09:55;10.50;;;6.00;;
58222;SDS011;44020;50.890;15.796;2022-10-15T03:12:22;12.10;;;6.40;;
58222;SDS011;44020;50.890;15.796;2022-10-15T03:14:51;9.00;;;6.10;;
58222;SDS011;44020;50.890;15.796;2022-10-15T03:17:19;9.70;;;7.10;;
58222;SDS011;44020;50.890;15.796;2022-10-15T03:19:46;11.00;;;7.70;;
58222;SDS011;44020;50.890;15.796;2022-10-15T03:22:13;13.10;;;8.40;;
58222;SDS011;44020;50.890;15.796;2022-10-15T03:24:40;12.70;;;7.70;;
58222;SDS011;44020;50.890;15.796;2022-10-15T03:27:07;8.90;;;6.90;;
58222;SDS011;44020;50.890;15.796;2022-10-15T03:29:34;12.70;;;7.20;;
58222;SDS011;44020;50.890;15.796;2022-10-15T03:32:01;9.10;;;6.20;;
58222;SDS011;44020;50.890;15.796;2022-10-15T03:34:28;10.60;;;7.40;;
58222;SDS011;44020;50.890;15.796;2022-10-15T03:36:55;10.80;;;8.00;;
58222;SDS011;44020;50.890;15.796;2022-10-15T03:39:22;11.00;;;8.30;;
58222;SDS011;44020;50.890;15.796;2022-10-15T03:41:51;10.20;;;7.80;;
58222;SDS011;44020;50.890;15.796;2022-10-15T03:44:19;9.70;;;7.50;;
58222;SDS011;44020;50.890;15.796;2022-10-15T03:46:46;9.00;;;6.90;;
58222;SDS011;44020;50.890;15.796;2022-10-15T03:49:13;8.10;;;5.90;;
58222;SDS011;44020;50.890;15.796;2022-10-15T03:51:40;9.50;;;6.60;;
58222;SDS011;44020;50.890;15.796;2022-10-15T03:54:07;11.30;;;7.50;;
58222;SDS011;44020;50.890;15.796;2022-10-15T03:56:34;14.30;;;8.10;;
58222;SDS011;44020;50.890;15.796;2022-10-15T03:59:01;10.50;;;7.50;;
58222;SDS011;44020;50.890;15.796;2022-10-15T04:01:28;14.00;;;8.70;;
58222;SDS011;44020;50.890;15.796;2022-10-15T04:03:55;11.40;;;7.80;;
58222;SDS011;44020;50.890;15.796;2022-10-15T04:06:22;11.90;;;8.00;;
58222;SDS011;44020;50.890;15.796;2022-10-15T04:08:49;13.30;;;8.80;;
58222;SDS011;44020;50.890;15.796;2022-10-15T04:11:16;11.50;;;8.40;;
58222;SDS011;44020;50.890;15.796;2022-10-15T04:13:46;15.20;;;9.40;;
58222;SDS011;44020;50.890;15.796;2022-10-15T04:16:15;13.00;;;8.90;;
58222;SDS011;44020;50.890;15.796;2022-10-15T04:18:43;16.10;;;11.20;;
58222;SDS011;44020;50.890;15.796;2022-10-15T04:21:10;18.00;;;11.00;;
58222;SDS011;44020;50.890;15.796;2022-10-15T04:23:37;17.50;;;10.60;;
58222;SDS011;44020;50.890;15.796;2022-10-15T04:26:05;14.60;;;10.00;;
58222;SDS011;44020;50.890;15.796;2022-10-15T04:28:32;14.90;;;9.60;;
58222;SDS011;44020;50.890;15.796;2022-10-15T04:30:59;16.70;;;10.90;;
58222;SDS011;44020;50.890;15.796;2022-10-15T04:33:27;15.90;;;10.60;;
58222;SDS011;44020;50.890;15.796;2022-10-15T04:36:04;16.00;;;10.60;;
58222;SDS011;44020;50.890;15.796;2022-10-15T04:38:34;16.10;;;10.50;;
58222;SDS011;44020;50.890;15.796;2022-10-15T04:41:05;17.60;;;10.50;;
58222;SDS011;44020;50.890;15.796;2022-10-15T04:43:34;17.20;;;10.40;;
58222;SDS011;44020;50.890;15.796;2022-10-15T04:46:02;15.80;;;10.00;;
58222;SDS011;44020;50.890;15.796;2022-10-15T04:48:31;18.80;;;9.90;;
58222;SDS011;44020;50.890;15.796;2022-10-15T04:53:32;18.20;;;9.70;;
58222;SDS011;44020;50.890;15.796;2022-10-15T04:55:59;14.70;;;10.10;;
58222;SDS011;44020;50.890;15.796;2022-10-15T04:58:28;14.50;;;9.90;;
58222;SDS011;44020;50.890;15.796;2022-10-15T05:01:00;15.80;;;10.10;;
58222;SDS011;44020;50.890;15.796;2022-10-15T05:03:38;16.30;;;10.00;;
58222;SDS011;44020;50.890;15.796;2022-10-15T05:06:07;18.80;;;11.00;;
58222;SDS011;44020;50.890;15.796;2022-10-15T05:08:36;15.50;;;10.40;;
58222;SDS011;44020;50.890;15.796;2022-10-15T05:11:11;14.90;;;10.30;;
58222;SDS011;44020;50.890;15.796;2022-10-15T05:13:44;17.10;;;10.90;;
58222;SDS011;44020;50.890;15.796;2022-10-15T05:18:40;17.50;;;10.80;;
58222;SDS011;44020;50.890;15.796;2022-10-15T05:21:09;13.40;;;9.60;;
58222;SDS011;44020;50.890;15.796;2022-10-15T05:23:37;15.20;;;10.30;;
58222;SDS011;44020;50.890;15.796;2022-10-15T05:26:06;16.10;;;10.10;;
58222;SDS011;44020;50.890;15.796;2022-10-15T05:28:34;14.90;;;10.30;;
58222;SDS011;44020;50.890;15.796;2022-10-15T05:31:05;17.00;;;10.60;;
58222;SDS011;44020;50.890;15.796;2022-10-15T05:36:10;16.60;;;10.50;;
58222;SDS011;44020;50.890;15.796;2022-10-15T05:38:40;16.50;;;10.80;;
58222;SDS011;44020;50.890;15.796;2022-10-15T05:41:07;17.20;;;11.10;;
58222;SDS011;44020;50.890;15.796;2022-10-15T05:43:34;16.70;;;10.30;;
58222;SDS011;44020;50.890;15.796;2022-10-15T05:46:01;17.90;;;11.30;;
58222;SDS011;44020;50.890;15.796;2022-10-15T05:48:31;17.50;;;11.50;;
58222;SDS011;44020;50.890;15.796;2022-10-15T05:51:05;16.60;;;11.70;;
58222;SDS011;44020;50.890;15.796;2022-10-15T05:53:33;21.30;;;13.40;;
58222;SDS011;44020;50.890;15.796;2022-10-15T05:56:00;20.50;;;12.60;;
58222;SDS011;44020;50.890;15.796;2022-10-15T05:58:28;17.80;;;12.10;;
58222;SDS011;44020;50.890;15.796;2022-10-15T06:00:56;19.50;;;12.40;;
58222;SDS011;44020;50.890;15.796;2022-10-15T06:03:25;17.10;;;12.40;;
58222;SDS011;44020;50.890;15.796;2022-10-15T06:05:55;19.60;;;12.60;;
58222;SDS011;44020;50.890;15.796;2022-10-15T06:08:22;17.20;;;11.70;;
58222;SDS011;44020;50.890;15.796;2022-10-15T06:10:49;18.50;;;13.10;;
58222;SDS011;44020;50.890;15.796;2022-10-15T06:13:16;16.20;;;11.80;;
58222;SDS011;44020;50.890;15.796;2022-10-15T06:15:44;17.60;;;11.30;;
58222;SDS011;44020;50.890;15.796;2022-10-15T06:18:12;18.10;;;11.60;;
58222;SDS011;44020;50.890;15.796;2022-10-15T06:20:43;16.60;;;11.40;;
58222;SDS011;44020;50.890;15.796;2022-10-15T06:23:10;17.60;;;11.40;;
58222;SDS011;44020;50.890;15.796;2022-10-15T06:25:39;19.10;;;11.00;;
58222;SDS011;44020;50.890;15.796;2022-10-15T06:28:06;17.60;;;12.00;;
58222;SDS011;44020;50.890;15.796;2022-10-15T06:30:33;16.20;;;10.40;;
58222;SDS011;44020;50.890;15.796;2022-10-15T06:33:00;29.70;;;21.20;;
58222;SDS011;44020;50.890;15.796;2022-10-15T06:35:27;33.60;;;23.00;;
58222;SDS011;44020;50.890;15.796;2022-10-15T06:37:58;34.20;;;23.00;;
58222;SDS011;44020;50.890;15.796;2022-10-15T06:40:26;42.50;;;30.20;;
58222;SDS011;44020;50.890;15.796;2022-10-15T06:42:53;46.30;;;32.80;;
58222;SDS011;44020;50.890;15.796;2022-10-15T06:45:20;44.20;;;31.10;;
58222;SDS011;44020;50.890;15.796;2022-10-15T06:47:47;41.40;;;28.60;;
58222;SDS011;44020;50.890;15.796;2022-10-15T06:50:14;42.00;;;27.60;;
58222;SDS011;44020;50.890;15.796;2022-10-15T06:52:41;45.10;;;26.60;;
58222;SDS011;44020;50.890;15.796;2022-10-15T06:55:08;35.40;;;20.30;;
58222;SDS011;44020;50.890;15.796;2022-10-15T06:57:35;85.60;;;39.40;;
58222;SDS011;44020;50.890;15.796;2022-10-15T07:00:03;61.90;;;30.50;;
58222;SDS011;44020;50.890;15.796;2022-10-15T07:02:30;89.20;;;41.50;;
58222;SDS011;44020;50.890;15.796;2022-10-15T07:04:57;39.50;;;23.80;;
58222;SDS011;44020;50.890;15.796;2022-10-15T07:07:24;38.80;;;23.70;;
58222;SDS011;44020;50.890;15.796;2022-10-15T07:09:51;117.40;;;53.80;;
58222;SDS011;44020;50.890;15.796;2022-10-15T07:12:20;87.00;;;43.60;;
58222;SDS011;44020;50.890;15.796;2022-10-15T07:14:47;78.10;;;40.20;;
58222;SDS011;44020;50.890;15.796;2022-10-15T07:17:15;43.80;;;25.50;;
58222;SDS011;44020;50.890;15.796;2022-10-15T07:19:42;35.10;;;22.60;;
58222;SDS011;44020;50.890;15.796;2022-10-15T07:22:09;93.40;;;52.20;;
58222;SDS011;44020;50.890;15.796;2022-10-15T07:24:36;61.50;;;36.80;;
58222;SDS011;44020;50.890;15.796;2022-10-15T07:27:04;43.10;;;26.80;;
58222;SDS011;44020;50.890;15.796;2022-10-15T07:29:31;44.60;;;28.70;;
58222;SDS011;44020;50.890;15.796;2022-10-15T07:31:58;68.80;;;45.20;;
58222;SDS011;44020;50.890;15.796;2022-10-15T07:34:25;56.30;;;35.60;;
58222;SDS011;44020;50.890;15.796;2022-10-15T07:36:52;40.20;;;23.90;;
58222;SDS011;44020;50.890;15.796;2022-10-15T07:39:19;35.00;;;23.60;;
58222;SDS011;44020;50.890;15.796;2022-10-15T07:41:46;38.10;;;24.00;;
58222;SDS011;44020;50.890;15.796;2022-10-15T07:44:13;35.50;;;23.50;;
58222;SDS011;44020;50.890;15.796;2022-10-15T07:46:40;44.10;;;26.20;;
58222;SDS011;44020;50.890;15.796;2022-10-15T07:49:07;54.40;;;31.00;;
58222;SDS011;44020;50.890;15.796;2022-10-15T07:51:35;72.40;;;34.10;;
58222;SDS011;44020;50.890;15.796;2022-10-15T07:54:02;116.50;;;45.90;;
58222;SDS011;44020;50.890;15.796;2022-10-15T07:56:29;84.70;;;35.40;;
58222;SDS011;44020;50.890;15.796;2022-10-15T07:58:56;55.40;;;27.90;;
58222;SDS011;44020;50.890;15.796;2022-10-15T08:01:23;36.80;;;21.20;;
58222;SDS011;44020;50.890;15.796;2022-10-15T08:03:50;42.10;;;24.10;;
58222;SDS011;44020;50.890;15.796;2022-10-15T08:06:17;36.70;;;24.30;;
58222;SDS011;44020;50.890;15.796;2022-10-15T08:08:44;37.50;;;24.00;;
58222;SDS011;44020;50.890;15.796;2022-10-15T08:11:14;53.00;;;26.60;;
58222;SDS011;44020;50.890;15.796;2022-10-15T08:13:42;41.40;;;24.00;;
58222;SDS011;44020;50.890;15.796;2022-10-15T08:16:13;34.30;;;20.50;;
58222;SDS011;44020;50.890;15.796;2022-10-15T08:18:41;30.00;;;19.00;;
58222;SDS011;44020;50.890;15.796;2022-10-15T08:21:09;31.90;;;19.30;;
58222;SDS011;44020;50.890;15.796;2022-10-15T08:23:37;39.70;;;22.10;;
58222;SDS011;44020;50.890;15.796;2022-10-15T08:26:04;37.10;;;20.70;;
58222;SDS011;44020;50.890;15.796;2022-10-15T08:28:32;38.30;;;22.00;;
58222;SDS011;44020;50.890;15.796;2022-10-15T08:31:01;37.70;;;22.20;;
58222;SDS011;44020;50.890;15.796;2022-10-15T08:33:29;29.80;;;17.60;;
58222;SDS011;44020;50.890;15.796;2022-10-15T08:35:57;26.40;;;16.40;;
58222;SDS011;44020;50.890;15.796;2022-10-15T08:38:24;19.70;;;13.40;;
58222;SDS011;44020;50.890;15.796;2022-10-15T08:40:52;20.80;;;13.00;;
58222;SDS011;44020;50.890;15.796;2022-10-15T08:45:56;17.90;;;12.00;;
58222;SDS011;44020;50.890;15.796;2022-10-15T08:48:28;18.60;;;11.30;;
58222;SDS011;44020;50.890;15.796;2022-10-15T08:53:29;15.70;;;9.50;;
58222;SDS011;44020;50.890;15.796;2022-10-15T08:56:16;14.00;;;9.00;;
58222;SDS011;44020;50.890;15.796;2022-10-15T09:02:03;11.70;;;6.60;;
58222;SDS011;44020;50.890;15.796;2022-10-15T09:07:51;8.00;;;4.70;;
58222;SDS011;44020;50.890;15.796;2022-10-15T09:13:10;4.20;;;3.00;;
58222;SDS011;44020;50.890;15.796;2022-10-15T09:15:51;2.50;;;2.10;;
58222;SDS011;44020;50.890;15.796;2022-10-15T09:18:23;4.00;;;3.10;;
58222;SDS011;44020;50.890;15.796;2022-10-15T09:20:52;3.40;;;2.40;;
58222;SDS011;44020;50.890;15.796;2022-10-15T09:23:21;5.30;;;3.40;;
58222;SDS011;44020;50.890;15.796;2022-10-15T09:28:53;4.20;;;2.30;;
58222;SDS011;44020;50.890;15.796;2022-10-15T09:31:28;1.90;;;1.40;;
58222;SDS011;44020;50.890;15.796;2022-10-15T09:34:04;12.60;;;7.40;;
58222;SDS011;44020;50.890;15.796;2022-10-15T09:36:42;8.60;;;5.70;;
58222;SDS011;44020;50.890;15.796;2022-10-15T09:39:26;17.60;;;10.70;;
58222;SDS011;44020;50.890;15.796;2022-10-15T09:44:57;23.70;;;13.90;;
58222;SDS011;44020;50.890;15.796;2022-10-15T09:47:31;15.80;;;8.90;;
58222;SDS011;44020;50.890;15.796;2022-10-15T09:50:03;9.80;;;5.90;;
58222;SDS011;44020;50.890;15.796;2022-10-15T09:53:39;11.20;;;5.90;;
58222;SDS011;44020;50.890;15.796;2022-10-15T09:55:49;2.80;;;1.60;;
58222;SDS011;44020;50.890;15.796;2022-10-15T09:58:27;1.20;;;0.70;;
58222;SDS011;44020;50.890;15.796;2022-10-15T10:01:00;1.10;;;0.70;;
58222;SDS011;44020;50.890;15.796;2022-10-15T10:03:30;1.50;;;0.80;;
58222;SDS011;44020;50.890;15.796;2022-10-15T10:06:03;3.60;;;1.30;;
58222;SDS011;44020;50.890;15.796;2022-10-15T10:08:38;4.30;;;2.00;;
58222;SDS011;44020;50.890;15.796;2022-10-15T10:11:13;2.90;;;1.30;;
58222;SDS011;44020;50.890;15.796;2022-10-15T10:13:44;4.80;;;1.70;;
58222;SDS011;44020;50.890;15.796;2022-10-15T10:16:17;3.40;;;1.20;;
58222;SDS011;44020;50.890;15.796;2022-10-15T10:19:31;1.80;;;0.80;;
58222;SDS011;44020;50.890;15.796;2022-10-15T10:21:49;1.80;;;0.80;;
58222;SDS011;44020;50.890;15.796;2022-10-15T10:24:31;2.70;;;0.70;;
58222;SDS011;44020;50.890;15.796;2022-10-15T10:27:00;1.50;;;0.70;;
58222;SDS011;44020;50.890;15.796;2022-10-15T10:29:28;1.20;;;0.50;;
58222;SDS011;44020;50.890;15.796;2022-10-15T10:31:58;1.20;;;0.40;;
58222;SDS011;44020;50.890;15.796;2022-10-15T10:34:26;0.70;;;0.30;;
58222;SDS011;44020;50.890;15.796;2022-10-15T10:36:55;0.60;;;0.30;;
58222;SDS011;44020;50.890;15.796;2022-10-15T10:39:27;0.70;;;0.40;;
58222;SDS011;44020;50.890;15.796;2022-10-15T10:42:01;0.30;;;0.30;;
58222;SDS011;44020;50.890;15.796;2022-10-15T10:49:33;1.40;;;0.20;;
58222;SDS011;44020;50.890;15.796;2022-10-15T10:52:03;0.40;;;0.30;;
58222;SDS011;44020;50.890;15.796;2022-10-15T10:54:32;0.80;;;0.20;;
58222;SDS011;44020;50.890;15.796;2022-10-15T10:56:59;1.30;;;0.50;;
58222;SDS011;44020;50.890;15.796;2022-10-15T10:59:30;0.60;;;0.40;;
58222;SDS011;44020;50.890;15.796;2022-10-15T11:02:01;0.60;;;0.30;;
58222;SDS011;44020;50.890;15.796;2022-10-15T11:04:32;1.00;;;0.20;;
58222;SDS011;44020;50.890;15.796;2022-10-15T11:09:43;1.00;;;0.50;;
58222;SDS011;44020;50.890;15.796;2022-10-15T11:23:12;1.30;;;0.60;;
58222;SDS011;44020;50.890;15.796;2022-10-15T11:25:50;1.70;;;0.70;;
58222;SDS011;44020;50.890;15.796;2022-10-15T11:28:53;1.80;;;0.70;;
58222;SDS011;44020;50.890;15.796;2022-10-15T11:36:43;0.70;;;0.40;;
58222;SDS011;44020;50.890;15.796;2022-10-15T11:47:53;0.90;;;0.80;;
58222;SDS011;44020;50.890;15.796;2022-10-15T11:53:00;1.20;;;0.90;;
58222;SDS011;44020;50.890;15.796;2022-10-15T11:55:41;1.30;;;0.80;;
58222;SDS011;44020;50.890;15.796;2022-10-15T11:58:31;2.10;;;0.90;;
58222;SDS011;44020;50.890;15.796;2022-10-15T12:01:11;1.30;;;0.80;;
58222;SDS011;44020;50.890;15.796;2022-10-15T12:03:54;1.50;;;1.00;;
58222;SDS011;44020;50.890;15.796;2022-10-15T12:06:29;1.70;;;1.20;;
58222;SDS011;44020;50.890;15.796;2022-10-15T12:09:06;2.50;;;1.40;;
58222;SDS011;44020;50.890;15.796;2022-10-15T12:11:48;1.70;;;1.10;;
58222;SDS011;44020;50.890;15.796;2022-10-15T12:15:06;2.10;;;1.40;;
58222;SDS011;44020;50.890;15.796;2022-10-15T12:20:07;2.40;;;1.70;;
58222;SDS011;44020;50.890;15.796;2022-10-15T12:22:42;2.50;;;1.70;;
58222;SDS011;44020;50.890;15.796;2022-10-15T12:30:37;5.40;;;2.30;;
58222;SDS011;44020;50.890;15.796;2022-10-15T12:36:29;3.90;;;1.90;;
58222;SDS011;44020;50.890;15.796;2022-10-15T12:39:01;4.40;;;2.40;;
58222;SDS011;44020;50.890;15.796;2022-10-15T12:41:48;5.50;;;2.30;;
58222;SDS011;44020;50.890;15.796;2022-10-15T12:44:21;4.30;;;2.50;;
58222;SDS011;44020;50.890;15.796;2022-10-15T12:46:52;5.50;;;2.70;;
58222;SDS011;44020;50.890;15.796;2022-10-15T12:51:52;5.50;;;2.20;;
58222;SDS011;44020;50.890;15.796;2022-10-15T13:03:17;6.50;;;3.60;;
58222;SDS011;44020;50.890;15.796;2022-10-15T13:05:46;8.00;;;4.30;;
58222;SDS011;44020;50.890;15.796;2022-10-15T13:08:17;6.90;;;3.90;;
58222;SDS011;44020;50.890;15.796;2022-10-15T13:13:25;4.20;;;3.00;;
58222;SDS011;44020;50.890;15.796;2022-10-15T13:16:01;5.20;;;3.40;;
58222;SDS011;44020;50.890;15.796;2022-10-15T13:18:33;4.50;;;3.70;;
58222;SDS011;44020;50.890;15.796;2022-10-15T13:21:01;6.10;;;4.10;;
58222;SDS011;44020;50.890;15.796;2022-10-15T13:23:30;6.20;;;5.00;;
58222;SDS011;44020;50.890;15.796;2022-10-15T13:26:20;5.90;;;4.40;;
58222;SDS011;44020;50.890;15.796;2022-10-15T13:28:56;4.40;;;3.60;;
58222;SDS011;44020;50.890;15.796;2022-10-15T13:31:27;4.10;;;3.40;;
58222;SDS011;44020;50.890;15.796;2022-10-15T13:34:01;4.20;;;2.70;;
58222;SDS011;44020;50.890;15.796;2022-10-15T13:36:36;5.40;;;3.50;;
58222;SDS011;44020;50.890;15.796;2022-10-15T13:39:06;10.30;;;5.90;;
58222;SDS011;44020;50.890;15.796;2022-10-15T13:41:46;19.90;;;9.70;;
58222;SDS011;44020;50.890;15.796;2022-10-15T13:44:22;17.80;;;9.00;;
58222;SDS011;44020;50.890;15.796;2022-10-15T13:46:50;14.00;;;7.40;;
58222;SDS011;44020;50.890;15.796;2022-10-15T13:49:17;13.10;;;8.10;;
58222;SDS011;44020;50.890;15.796;2022-10-15T13:51:46;12.10;;;7.40;;
58222;SDS011;44020;50.890;15.796;2022-10-15T13:54:18;12.40;;;7.90;;
58222;SDS011;44020;50.890;15.796;2022-10-15T13:56:54;18.50;;;11.60;;
58222;SDS011;44020;50.890;15.796;2022-10-15T13:59:28;8.70;;;5.50;;
58222;SDS011;44020;50.890;15.796;2022-10-15T14:01:58;17.00;;;10.30;;
58222;SDS011;44020;50.890;15.796;2022-10-15T14:04:28;15.00;;;10.10;;
58222;SDS011;44020;50.890;15.796;2022-10-15T14:06:59;14.20;;;10.40;;
58222;SDS011;44020;50.890;15.796;2022-10-15T14:11:56;15.70;;;10.50;;
58222;SDS011;44020;50.890;15.796;2022-10-15T14:14:27;12.10;;;8.20;;
58222;SDS011;44020;50.890;15.796;2022-10-15T14:16:56;20.20;;;12.40;;
58222;SDS011;44020;50.890;15.796;2022-10-15T14:19:25;18.10;;;12.50;;
58222;SDS011;44020;50.890;15.796;2022-10-15T14:21:56;11.20;;;7.50;;
58222;SDS011;44020;50.890;15.796;2022-10-15T14:24:37;7.20;;;4.50;;
58222;SDS011;44020;50.890;15.796;2022-10-15T14:27:06;3.90;;;2.80;;
58222;SDS011;44020;50.890;15.796;2022-10-15T14:30:11;7.20;;;3.50;;
58222;SDS011;44020;50.890;15.796;2022-10-15T14:32:44;3.40;;;2.50;;
58222;SDS011;44020;50.890;15.796;2022-10-15T14:35:24;3.30;;;2.20;;
58222;SDS011;44020;50.890;15.796;2022-10-15T14:37:58;3.20;;;2.10;;
58222;SDS011;44020;50.890;15.796;2022-10-15T14:40:27;3.80;;;2.10;;
58222;SDS011;44020;50.890;15.796;2022-10-15T14:43:02;2.70;;;2.00;;
58222;SDS011;44020;50.890;15.796;2022-10-15T14:48:23;3.40;;;2.30;;
58222;SDS011;44020;50.890;15.796;2022-10-15T14:50:57;5.00;;;2.80;;
58222;SDS011;44020;50.890;15.796;2022-10-15T14:53:26;4.60;;;3.00;;
58222;SDS011;44020;50.890;15.796;2022-10-15T14:55:57;7.90;;;5.20;;
58222;SDS011;44020;50.890;15.796;2022-10-15T14:58:28;11.70;;;6.80;;
58222;SDS011;44020;50.890;15.796;2022-10-15T15:00:57;8.70;;;5.00;;
58222;SDS011;44020;50.890;15.796;2022-10-15T15:03:30;24.20;;;21.00;;
58222;SDS011;44020;50.890;15.796;2022-10-15T15:06:05;26.70;;;18.60;;
58222;SDS011;44020;50.890;15.796;2022-10-15T15:08:33;37.80;;;20.30;;
58222;SDS011;44020;50.890;15.796;2022-10-15T15:11:03;31.70;;;17.80;;
58222;SDS011;44020;50.890;15.796;2022-10-15T15:13:42;21.00;;;12.90;;
58222;SDS011;44020;50.890;15.796;2022-10-15T15:16:11;31.10;;;18.80;;
58222;SDS011;44020;50.890;15.796;2022-10-15T15:18:39;68.80;;;28.90;;
58222;SDS011;44020;50.890;15.796;2022-10-15T15:21:10;60.80;;;26.90;;
58222;SDS011;44020;50.890;15.796;2022-10-15T15:23:40;55.90;;;24.70;;
58222;SDS011;44020;50.890;15.796;2022-10-15T15:26:08;43.30;;;18.30;;
58222;SDS011;44020;50.890;15.796;2022-10-15T15:28:35;41.10;;;19.90;;
58222;SDS011;44020;50.890;15.796;2022-10-15T15:31:03;30.40;;;15.10;;
58222;SDS011;44020;50.890;15.796;2022-10-15T15:33:38;21.60;;;12.90;;
58222;SDS011;44020;50.890;15.796;2022-10-15T15:36:08;30.50;;;16.90;;
58222;SDS011;44020;50.890;15.796;2022-10-15T15:38:39;47.50;;;21.50;;
58222;SDS011;44020;50.890;15.796;2022-10-15T15:43:37;56.50;;;24.60;;
58222;SDS011;44020;50.890;15.796;2022-10-15T15:46:05;46.50;;;23.20;;
58222;SDS011;44020;50.890;15.796;2022-10-15T15:48:32;44.90;;;22.90;;
58222;SDS011;44020;50.890;15.796;2022-10-15T15:51:01;39.20;;;21.70;;
58222;SDS011;44020;50.890;15.796;2022-10-15T15:53:31;38.60;;;22.00;;
58222;SDS011;44020;50.890;15.796;2022-10-15T15:55:58;37.80;;;22.70;;
58222;SDS011;44020;50.890;15.796;2022-10-15T15:58:25;29.40;;;18.30;;
58222;SDS011;44020;50.890;15.796;2022-10-15T16:00:52;27.20;;;18.70;;
58222;SDS011;44020;50.890;15.796;2022-10-15T16:03:19;26.70;;;19.60;;
58222;SDS011;44020;50.890;15.796;2022-10-15T16:05:46;16.10;;;11.80;;
58222;SDS011;44020;50.890;15.796;2022-10-15T16:08:15;21.80;;;13.80;;
58222;SDS011;44020;50.890;15.796;2022-10-15T16:10:42;22.50;;;14.30;;
58222;SDS011;44020;50.890;15.796;2022-10-15T16:13:10;23.10;;;14.80;;
58222;SDS011;44020;50.890;15.796;2022-10-15T16:15:37;28.60;;;15.70;;
58222;SDS011;44020;50.890;15.796;2022-10-15T16:18:04;27.80;;;15.90;;
58222;SDS011;44020;50.890;15.796;2022-10-15T16:20:31;31.00;;;18.00;;
58222;SDS011;44020;50.890;15.796;2022-10-15T16:23:01;43.70;;;23.80;;
58222;SDS011;44020;50.890;15.796;2022-10-15T16:25:28;27.20;;;15.00;;
58222;SDS011;44020;50.890;15.796;2022-10-15T16:27:55;22.80;;;12.50;;
58222;SDS011;44020;50.890;15.796;2022-10-15T16:30:22;35.80;;;21.20;;
58222;SDS011;44020;50.890;15.796;2022-10-15T16:32:49;25.90;;;16.80;;
58222;SDS011;44020;50.890;15.796;2022-10-15T16:35:16;26.10;;;16.40;;
58222;SDS011;44020;50.890;15.796;2022-10-15T16:37:43;25.10;;;15.60;;
58222;SDS011;44020;50.890;15.796;2022-10-15T16:40:11;25.90;;;16.70;;
58222;SDS011;44020;50.890;15.796;2022-10-15T16:42:38;26.20;;;15.70;;
58222;SDS011;44020;50.890;15.796;2022-10-15T16:45:05;26.20;;;17.70;;